Cucamonga, California
Current Conditions -  °F | °C
As of 4:53 PM on Wednesday 22 Oct 2014 (Local Time) from KONT Reporting Station
Broken Clouds Broken Clouds  
Wind Chill: 86°   Ceiling: 25000
Heat Index: 86°   Visibility: 10mi
Dew Point: 48°   Wind: 12mph
Humidity: 27%   Direction: 250°WSW
Pressure: 29.89"   Gusts: NA
Location:  34.1001°N, 117.582°W
Report Text: KONT 222353Z 25010KT 10SM BKN250 30/09 A2989 RMK AO2 SLP108 T03000089 10317 20233 56004
Loading
Personal Weather Stations






























Interactive Weather Map
Tropical Storm Tracking
New forecast layout! Learn more

10-Day Weather Forecast

Advertisements
Track Severe Weather on mobile